Report METAR

 

LIML - Milano/Linate, Italy
Distance from station: NO 27km
Dati ricevuti: 31/07/2021 20:20
Molto nuvoloso
Molto nuvoloso
 Vento da O
Vento: O 7 km/h
Temperatura: 26°C
P.to Rugiada: 18°C
Umidità: 61%
Barometro: 1006 hPa
Nuvole: Molto nuvoloso
Visibility: 10 km
Cloud details: Parz. nuvoloso 3353 m
Parz. nuvoloso 3658 m
Molto nuvoloso 5486 m
2021/07/31 18:20 LIML 311820Z AUTO 26004KT 9999 SCT110/// SCT120/// BKN180/// 26/18 Q1006
LIME - Bergamo/Orio Ser, Italy
Distance from station: NNE 43km
Dati ricevuti: 31/07/2021 20:20
Parz. nuvoloso
Parz. nuvoloso
 Vento da NNE
Vento: NNE 11 km/h
Temperatura: 24°C
P.to Rugiada: 15°C
Umidità: 57%
Barometro: 1007 hPa
Nuvole: Parz. nuvoloso
Visibility: 10 km
Cloud details: Parz. nuvoloso 1829 m
2021/07/31 18:20 LIME 311820Z 02006KT 9999 SCT060 24/15 Q1007 NOSIG
 
LIMS - Piacenza, it-Afb, Italy
Distance from station: SSE 45km
Dati ricevuti: 31/07/2021 19:55
Parz. nuvoloso
Parz. nuvoloso
 Vento da ONO
Vento: ONO 11 km/h
Temperatura: 29°C
Indice di Calore: 32°C
P.to Rugiada: 23°C
Umidità: 70%
Barometro: 1006 hPa
Nuvole: Parz. nuvoloso
Visibility: 10 km
Cloud details: Parz. nuvoloso 1219 m
2021/07/31 17:55 LIMS 311755Z 30006KT 260V330 9999 SCT040 29/23 Q1006
LIPO - Brescia/Montichi, Italy
Distance from station: ENE 65km
Dati ricevuti: 31/07/2021 20:20
Few Clouds
Few Clouds
 Vento da NNE
Vento: NNE 7 km/h
Temperatura: 29°C
Indice di Calore: 29°C
P.to Rugiada: 18°C
Umidità: 51%
Barometro: 1006 hPa
Nuvole: Few Clouds
Visibility: 10 km
Cloud details: Few Clouds 3658 m
2021/07/31 18:20 LIPO 311820Z AUTO 02004KT 9999 FEW120/// 29/18 Q1006